createdAt,value
2023-03-31T00:00:52.907Z,98961.88
2023-03-31T00:03:24.638Z,98958.22
2023-03-31T00:06:01.470Z,98960.09
2023-03-31T00:08:36.058Z,98955.00
2023-03-31T00:11:05.722Z,98957.53
2023-03-31T00:13:32.549Z,98951.28
2023-03-31T00:16:02.327Z,98952.31
2023-03-31T00:21:25.401Z,98942.25
2023-03-31T00:24:02.654Z,98929.16
2023-03-31T00:26:31.248Z,98924.53
2023-03-31T00:28:59.268Z,98915.03
2023-03-31T00:31:27.891Z,98908.38
2023-03-31T00:33:55.391Z,98903.00
2023-03-31T00:36:27.605Z,98899.25
2023-03-31T00:39:00.236Z,98892.97
2023-03-31T00:41:28.317Z,98898.84
2023-03-31T00:44:19.314Z,98880.09
2023-03-31T00:47:08.182Z,98870.59
2023-03-31T00:49:40.780Z,98877.03
2023-03-31T00:52:13.782Z,98871.72
2023-03-31T00:54:43.277Z,98872.41
2023-03-31T00:57:11.450Z,98872.53
2023-03-31T00:59:47.137Z,98867.97
2023-03-31T01:02:16.068Z,98850.81
2023-03-31T01:04:51.287Z,98849.28
2023-03-31T01:07:31.369Z,98843.13
2023-03-31T01:10:01.989Z,98843.41
2023-03-31T01:12:28.893Z,98834.25
2023-03-31T01:14:59.121Z,98835.44
2023-03-31T01:20:19.612Z,98829.59
2023-03-31T01:23:15.963Z,98827.78
2023-03-31T01:26:01.729Z,98824.84
2023-03-31T01:28:31.352Z,98804.72
2023-03-31T01:31:27.373Z,98807.63
2023-03-31T01:34:25.436Z,98805.69
2023-03-31T01:37:11.918Z,98786.53
2023-03-31T01:40:09.909Z,98796.09
2023-03-31T01:42:44.203Z,98792.22
2023-03-31T01:45:19.210Z,98788.19
2023-03-31T01:47:54.809Z,98788.66
2023-03-31T01:50:31.331Z,98782.09
2023-03-31T01:52:58.194Z,98783.28
2023-03-31T01:55:31.381Z,98774.72
2023-03-31T01:58:06.514Z,98776.00
2023-03-31T02:00:42.521Z,98768.84
2023-03-31T02:03:22.459Z,98768.75
2023-03-31T02:05:59.898Z,98756.38
2023-03-31T02:08:30.438Z,98768.41
2023-03-31T02:10:59.365Z,98759.25
2023-03-31T02:16:02.203Z,98749.72
2023-03-31T02:18:33.352Z,98741.78
2023-03-31T02:21:01.478Z,98734.09
2023-03-31T02:23:32.468Z,98721.47
2023-03-31T02:26:10.502Z,98717.72
2023-03-31T02:28:37.917Z,98720.19
2023-03-31T02:31:28.711Z,98714.00
2023-03-31T02:33:56.620Z,98702.50
2023-03-31T02:36:24.964Z,98692.19
2023-03-31T02:38:58.696Z,98687.56
2023-03-31T02:41:25.787Z,98692.03
2023-03-31T02:43:52.708Z,98698.81
2023-03-31T02:46:19.740Z,98686.81
2023-03-31T02:48:50.194Z,98685.53
2023-03-31T02:51:31.502Z,98682.44
2023-03-31T02:54:22.576Z,98688.31
2023-03-31T02:57:14.325Z,98706.63
2023-03-31T02:59:51.225Z,98676.69
2023-03-31T03:02:31.455Z,98685.78
2023-03-31T03:05:07.465Z,98673.84
2023-03-31T03:07:46.202Z,98659.78
2023-03-31T03:10:31.816Z,98650.19
2023-03-31T03:13:26.985Z,98648.09
2023-03-31T03:16:04.497Z,98642.13
2023-03-31T03:18:32.563Z,98632.66
2023-03-31T03:20:59.942Z,98621.72
2023-03-31T03:23:27.301Z,98621.72
2023-03-31T03:25:58.023Z,98617.16
2023-03-31T03:28:25.306Z,98616.69
2023-03-31T03:30:52.364Z,98618.78
2023-03-31T03:33:19.428Z,98618.78
2023-03-31T03:35:46.465Z,98623.63
2023-03-31T03:38:13.907Z,98619.78
2023-03-31T03:40:40.740Z,98619.31
2023-03-31T03:43:07.491Z,98605.03
2023-03-31T03:45:34.291Z,98604.81
2023-03-31T03:48:01.169Z,98602.59
2023-03-31T03:50:28.068Z,98605.25
2023-03-31T03:52:54.934Z,98603.19
2023-03-31T03:55:21.985Z,98591.00
2023-03-31T03:57:48.848Z,98571.78
2023-03-31T04:00:17.479Z,98572.03
2023-03-31T04:02:44.770Z,98558.56
2023-03-31T04:05:12.515Z,98552.38
2023-03-31T04:07:39.890Z,98545.84
2023-03-31T04:10:07.413Z,98547.25
2023-03-31T04:12:37.439Z,98549.81
2023-03-31T04:15:06.131Z,98543.16
2023-03-31T04:17:33.403Z,98538.22
2023-03-31T04:20:12.044Z,98525.47
2023-03-31T04:22:43.279Z,98523.03
2023-03-31T04:25:18.166Z,98521.38
2023-03-31T04:27:50.965Z,98516.81
2023-03-31T04:32:58.612Z,98515.09
2023-03-31T04:35:27.938Z,98508.19
2023-03-31T04:37:59.355Z,98510.41
2023-03-31T04:40:27.181Z,98492.16
2023-03-31T04:42:54.089Z,98471.94
2023-03-31T04:45:20.908Z,98464.13
2023-03-31T04:47:48.182Z,98454.66
2023-03-31T04:50:16.935Z,98454.19
2023-03-31T04:52:44.529Z,98463.88
2023-03-31T04:55:11.688Z,98463.75
2023-03-31T04:57:38.533Z,98463.28
2023-03-31T05:00:08.197Z,98449.25
2023-03-31T05:02:35.358Z,98447.50
2023-03-31T05:05:02.338Z,98452.28
2023-03-31T05:09:58.898Z,98441.06
2023-03-31T05:12:26.504Z,98431.97
2023-03-31T05:14:53.496Z,98424.13
2023-03-31T05:17:20.288Z,98414.19
2023-03-31T05:19:47.083Z,98414.19
2023-03-31T05:22:13.971Z,98417.00
2023-03-31T05:24:41.564Z,98406.72
2023-03-31T05:27:08.537Z,98405.44
2023-03-31T05:29:35.395Z,98397.59
2023-03-31T05:32:03.647Z,98396.31
2023-03-31T05:34:31.862Z,98395.16
2023-03-31T05:36:58.861Z,98395.50
2023-03-31T05:39:25.982Z,98386.38
2023-03-31T05:41:52.873Z,98382.28
2023-03-31T05:44:21.028Z,98385.69
2023-03-31T05:46:48.560Z,98382.75
2023-03-31T05:49:17.308Z,98394.09
2023-03-31T05:51:44.336Z,98391.75
2023-03-31T05:54:11.194Z,98393.75
2023-03-31T05:56:38.093Z,98396.09
2023-03-31T05:59:05.507Z,98399.22
2023-03-31T06:01:33.286Z,98392.22
2023-03-31T06:04:00.257Z,98395.13
2023-03-31T06:06:28.169Z,98394.47
2023-03-31T06:08:54.998Z,98396.44
2023-03-31T06:11:22.994Z,98393.28
2023-03-31T06:13:50.083Z,98389.44
2023-03-31T06:16:17.739Z,98387.44
2023-03-31T06:18:45.606Z,98383.81
2023-03-31T06:21:17.544Z,98402.38
2023-03-31T06:23:45.859Z,98398.66
2023-03-31T06:26:15.603Z,98390.34
2023-03-31T06:28:42.967Z,98388.94
2023-03-31T06:31:15.307Z,98392.47
2023-03-31T06:33:43.185Z,98399.00
2023-03-31T06:36:12.178Z,98394.56
2023-03-31T06:38:40.071Z,98389.19
2023-03-31T06:41:08.874Z,98386.25
2023-03-31T06:43:36.288Z,98371.44
2023-03-31T06:46:07.348Z,98363.84
2023-03-31T06:48:34.472Z,98354.16
2023-03-31T06:51:03.585Z,98345.63
2023-03-31T06:53:31.444Z,98337.22
2023-03-31T06:55:58.779Z,98324.25
2023-03-31T06:58:26.888Z,98318.28
2023-03-31T07:00:55.223Z,98308.94
2023-03-31T07:03:25.565Z,98307.78
2023-03-31T07:05:53.703Z,98302.88
2023-03-31T07:08:22.022Z,98287.81
2023-03-31T07:10:59.954Z,98284.75
2023-03-31T07:13:27.386Z,98276.47
2023-03-31T07:15:54.882Z,98271.91
2023-03-31T07:18:26.490Z,98264.78
2023-03-31T07:20:53.646Z,98267.94
2023-03-31T07:23:21.101Z,98258.25
2023-03-31T07:25:48.615Z,98253.44
2023-03-31T07:28:19.157Z,98257.75
2023-03-31T07:30:45.978Z,98250.53
2023-03-31T07:33:13.594Z,98248.78
2023-03-31T07:35:41.488Z,98235.09
2023-03-31T07:38:10.650Z,98226.88
2023-03-31T07:40:39.073Z,98221.44
2023-03-31T07:43:06.845Z,98219.91
2023-03-31T07:45:35.137Z,98223.06
2023-03-31T07:48:02.165Z,98233.34
2023-03-31T07:50:29.050Z,98234.94
2023-03-31T07:52:55.844Z,98232.81
2023-03-31T07:55:24.771Z,98226.03
2023-03-31T07:57:51.656Z,98217.75
2023-03-31T08:00:19.584Z,98196.91
2023-03-31T08:02:46.678Z,98179.50
2023-03-31T08:05:15.512Z,98182.34
2023-03-31T08:07:45.503Z,98168.91
2023-03-31T08:10:16.709Z,98162.09
2023-03-31T08:12:43.713Z,98148.81
2023-03-31T08:15:12.001Z,98155.91
2023-03-31T08:17:39.562Z,98161.69
2023-03-31T08:20:08.256Z,98154.66
2023-03-31T08:22:35.268Z,98167.97
2023-03-31T08:25:05.890Z,98169.28
2023-03-31T08:27:37.671Z,98167.31
2023-03-31T08:30:06.935Z,98163.56
2023-03-31T08:32:35.861Z,98159.44
2023-03-31T08:35:02.917Z,98150.38
2023-03-31T08:39:57.121Z,98154.63
2023-03-31T08:42:31.628Z,98141.91
2023-03-31T08:45:07.144Z,98145.69
2023-03-31T08:47:37.295Z,98152.91
2023-03-31T08:50:12.977Z,98156.03
2023-03-31T08:52:50.616Z,98147.16
2023-03-31T08:55:27.880Z,98140.78
2023-03-31T08:58:20.960Z,98157.25
2023-03-31T09:00:58.397Z,98152.84
2023-03-31T09:03:28.149Z,98142.75
2023-03-31T09:06:03.253Z,98135.06
2023-03-31T09:08:33.688Z,98193.16
2023-03-31T09:11:31.556Z,98186.34
2023-03-31T09:14:21.438Z,98194.69
2023-03-31T09:16:51.668Z,98174.84
2023-03-31T09:19:31.633Z,98178.63
2023-03-31T09:22:02.090Z,98167.59
2023-03-31T09:24:32.257Z,98169.78
2023-03-31T09:27:12.270Z,98175.34
2023-03-31T09:29:57.732Z,98201.56
2023-03-31T09:32:31.761Z,98190.84
2023-03-31T09:35:14.917Z,98189.81
2023-03-31T09:37:42.331Z,98179.66
2023-03-31T09:40:17.889Z,98197.31
2023-03-31T09:42:51.559Z,98172.03
2023-03-31T09:45:20.402Z,98162.66
2023-03-31T09:47:57.356Z,98169.22
2023-03-31T09:50:26.890Z,98154.53
2023-03-31T09:52:59.166Z,98149.75
2023-03-31T09:55:39.609Z,98141.41
2023-03-31T09:58:08.906Z,98140.13
2023-03-31T10:00:36.666Z,98136.94
2023-03-31T10:03:07.942Z,98143.78
2023-03-31T10:05:37.997Z,98144.47
2023-03-31T10:08:16.693Z,98154.00
2023-03-31T10:11:07.357Z,98161.56
2023-03-31T10:13:47.652Z,98150.50
2023-03-31T10:16:23.530Z,98166.94
2023-03-31T10:18:50.610Z,98177.75
2023-03-31T10:21:24.714Z,98147.41
2023-03-31T10:23:52.476Z,98146.91
2023-03-31T10:26:23.000Z,98159.44
2023-03-31T10:28:55.713Z,98164.69
2023-03-31T10:33:56.670Z,98208.19
2023-03-31T10:38:56.697Z,98232.72
2023-03-31T10:44:02.900Z,98202.78
2023-03-31T10:46:30.654Z,98162.94
2023-03-31T10:49:00.136Z,98165.44
2023-03-31T10:51:28.366Z,98165.69
2023-03-31T10:54:00.821Z,98181.44
2023-03-31T10:56:31.603Z,98213.34
2023-03-31T10:59:10.708Z,98235.06
2023-03-31T11:01:52.466Z,98202.50
2023-03-31T11:04:31.897Z,98214.88
2023-03-31T11:07:21.216Z,98185.31
2023-03-31T11:10:19.022Z,98117.78
2023-03-31T11:13:00.930Z,98113.69
2023-03-31T11:15:31.751Z,98064.09
2023-03-31T11:18:17.016Z,98074.41
2023-03-31T11:21:22.299Z,98081.75
2023-03-31T11:24:16.816Z,98072.25
2023-03-31T11:26:51.042Z,98071.84
2023-03-31T11:32:22.896Z,98076.44
2023-03-31T11:34:55.480Z,98079.13
2023-03-31T11:37:31.776Z,98069.44
2023-03-31T11:40:22.405Z,98056.56
2023-03-31T11:42:58.503Z,98048.66
2023-03-31T11:45:31.607Z,98064.41
2023-03-31T11:48:14.583Z,98065.41
2023-03-31T11:50:44.627Z,98058.91
2023-03-31T11:53:21.462Z,98057.66
2023-03-31T11:55:52.260Z,98057.78
2023-03-31T11:58:27.082Z,98071.75
2023-03-31T12:01:00.126Z,98081.72
2023-03-31T12:03:31.862Z,98095.13
2023-03-31T12:06:17.663Z,98109.22
2023-03-31T12:09:08.752Z,98107.47
2023-03-31T12:12:02.689Z,98085.41
2023-03-31T12:14:31.855Z,98090.88
2023-03-31T12:17:09.205Z,98083.34
2023-03-31T12:19:36.133Z,98070.94
2023-03-31T12:22:20.890Z,98073.22
2023-03-31T12:24:47.783Z,98050.75
2023-03-31T12:27:18.934Z,98047.09
2023-03-31T12:30:05.456Z,98041.94
2023-03-31T12:32:36.946Z,98028.16
2023-03-31T12:35:25.343Z,98035.56
2023-03-31T12:38:12.290Z,98030.94
2023-03-31T12:41:07.853Z,98021.75
2023-03-31T12:44:11.972Z,98012.69
2023-03-31T12:46:50.702Z,98004.97
2023-03-31T12:49:20.231Z,98004.56
2023-03-31T12:52:02.262Z,97993.28
2023-03-31T12:54:31.459Z,98012.41
2023-03-31T12:57:04.267Z,98008.09
2023-03-31T12:59:44.656Z,98001.25
2023-03-31T13:02:17.612Z,97999.44
2023-03-31T13:04:44.819Z,98006.75
2023-03-31T13:07:30.812Z,98001.84
2023-03-31T13:09:59.004Z,98011.09
2023-03-31T13:12:28.748Z,98008.50
2023-03-31T13:17:58.988Z,97997.91
2023-03-31T13:20:30.964Z,97997.03
2023-03-31T13:23:08.076Z,97993.03
2023-03-31T13:25:54.319Z,97989.38
2023-03-31T13:28:24.360Z,97990.75
2023-03-31T13:30:53.105Z,97983.78
2023-03-31T13:33:31.713Z,97983.56
2023-03-31T13:36:25.309Z,97966.38
2023-03-31T13:39:17.788Z,97966.72
2023-03-31T13:42:21.172Z,97977.78
2023-03-31T13:45:22.635Z,97989.13
2023-03-31T13:48:20.814Z,97966.19
2023-03-31T13:50:50.279Z,97960.06
2023-03-31T13:56:20.781Z,97949.94
2023-03-31T13:59:01.710Z,97953.28
2023-03-31T14:01:30.888Z,97946.47
2023-03-31T14:04:31.802Z,97934.25
2023-03-31T14:07:07.898Z,97925.88
2023-03-31T14:09:40.178Z,97941.66
2023-03-31T14:12:31.713Z,97942.34
2023-03-31T14:14:58.744Z,97927.47
2023-03-31T14:17:32.017Z,97924.84
2023-03-31T14:20:19.926Z,97926.53
2023-03-31T14:22:58.449Z,97935.59
2023-03-31T14:25:32.334Z,97931.34
2023-03-31T14:28:03.274Z,97930.63
2023-03-31T14:30:33.461Z,97932.88
2023-03-31T14:33:31.729Z,97940.91
2023-03-31T14:36:32.064Z,97948.06
2023-03-31T14:39:07.578Z,97937.91
2023-03-31T14:41:34.869Z,97949.47
2023-03-31T14:44:03.713Z,97951.09
2023-03-31T14:46:30.995Z,97925.69
2023-03-31T14:48:58.031Z,97930.59
2023-03-31T14:53:59.155Z,97929.78
2023-03-31T14:56:31.738Z,97933.31
2023-03-31T14:58:58.689Z,97917.06
2023-03-31T15:03:56.494Z,97936.81
2023-03-31T15:06:34.358Z,97937.03
2023-03-31T15:09:04.380Z,97950.81
2023-03-31T15:11:31.914Z,97953.25
2023-03-31T15:14:08.346Z,97952.38
2023-03-31T15:16:43.053Z,97936.47
2023-03-31T15:19:21.424Z,97941.59
2023-03-31T15:21:57.555Z,97951.56
2023-03-31T15:24:24.428Z,97943.22
2023-03-31T15:27:10.622Z,97933.16
2023-03-31T15:29:43.647Z,97929.00
2023-03-31T15:32:27.906Z,97922.16
2023-03-31T15:34:57.332Z,97935.81
2023-03-31T15:37:30.804Z,97924.78
2023-03-31T15:40:00.794Z,97911.16
2023-03-31T15:42:28.647Z,97923.59
2023-03-31T15:44:56.638Z,97925.59
2023-03-31T15:50:08.526Z,97931.91
2023-03-31T15:52:38.731Z,97922.44
2023-03-31T15:55:23.787Z,97941.34
2023-03-31T15:57:51.678Z,97965.34
2023-03-31T16:00:31.916Z,97969.53
2023-03-31T16:03:01.235Z,97977.66
2023-03-31T16:05:37.362Z,97982.72
2023-03-31T16:08:21.000Z,97977.78
2023-03-31T16:10:50.605Z,97978.53
2023-03-31T16:13:24.439Z,97979.56
2023-03-31T16:15:53.987Z,97988.19
2023-03-31T16:18:31.784Z,97985.94
2023-03-31T16:21:04.067Z,97983.47
2023-03-31T16:23:31.812Z,97988.31
2023-03-31T16:26:00.203Z,97992.91
2023-03-31T16:30:56.346Z,98025.66
2023-03-31T16:33:24.918Z,98034.47
2023-03-31T16:35:56.361Z,98009.22
2023-03-31T16:38:27.592Z,97952.88
2023-03-31T16:40:57.004Z,97959.75
2023-03-31T16:43:31.794Z,97952.97
2023-03-31T16:46:00.947Z,97955.63
2023-03-31T16:50:58.132Z,97961.56
2023-03-31T16:55:57.840Z,97969.75
2023-03-31T16:58:25.409Z,97971.66
2023-03-31T17:00:53.073Z,97967.28
2023-03-31T17:03:20.770Z,97970.97
2023-03-31T17:05:53.237Z,97970.03
2023-03-31T17:08:22.882Z,97968.72
2023-03-31T17:11:01.752Z,97965.22
2023-03-31T17:13:28.817Z,97968.81
2023-03-31T17:16:04.594Z,97974.06
2023-03-31T17:18:39.786Z,97971.28
2023-03-31T17:21:13.913Z,97976.00
2023-03-31T17:23:41.373Z,97961.81
2023-03-31T17:26:13.036Z,97970.84
2023-03-31T17:28:40.077Z,97962.13
2023-03-31T17:31:14.950Z,97969.88
2023-03-31T17:33:42.686Z,97965.31
2023-03-31T17:36:11.443Z,97972.16
2023-03-31T17:38:40.069Z,97966.47
2023-03-31T17:41:09.946Z,97969.53
2023-03-31T17:43:38.291Z,97974.91
2023-03-31T17:46:09.879Z,97971.75
2023-03-31T17:48:38.868Z,97970.13
2023-03-31T17:51:08.229Z,97987.50
2023-03-31T17:53:36.619Z,97973.06
2023-03-31T17:56:04.557Z,97972.75
2023-03-31T17:58:32.763Z,97979.56
2023-03-31T18:00:59.870Z,97979.00
2023-03-31T18:05:56.175Z,97987.84
2023-03-31T18:08:23.378Z,97992.34
2023-03-31T18:10:50.807Z,97995.03
2023-03-31T18:13:17.780Z,97990.81
2023-03-31T18:15:53.147Z,97993.19
2023-03-31T18:18:20.931Z,97991.72
2023-03-31T18:20:48.141Z,97985.03
2023-03-31T18:23:15.252Z,97990.16
2023-03-31T18:25:46.795Z,97991.53
2023-03-31T18:28:15.552Z,98007.03
2023-03-31T18:30:43.817Z,98002.88
2023-03-31T18:33:11.910Z,97997.41
2023-03-31T18:35:39.537Z,97994.16
2023-03-31T18:38:07.461Z,97994.81
2023-03-31T18:40:34.321Z,97997.50
2023-03-31T18:43:01.313Z,97986.72
2023-03-31T18:47:57.283Z,97990.53
2023-03-31T18:50:24.438Z,97995.28
2023-03-31T18:52:55.002Z,97989.06
2023-03-31T18:55:22.648Z,97999.28
2023-03-31T18:57:49.748Z,98007.34
2023-03-31T19:00:18.458Z,98014.00
2023-03-31T19:02:45.479Z,98017.50
2023-03-31T19:05:12.625Z,98010.38
2023-03-31T19:07:40.951Z,98010.06
2023-03-31T19:10:08.361Z,98022.69
2023-03-31T19:12:35.224Z,98029.06
2023-03-31T19:15:02.377Z,98038.19
2023-03-31T19:17:29.322Z,98025.81
2023-03-31T19:19:56.187Z,98032.88
2023-03-31T19:22:23.160Z,98034.44
2023-03-31T19:24:49.967Z,98039.81
2023-03-31T19:27:17.090Z,98042.44
2023-03-31T19:29:44.118Z,98048.63
2023-03-31T19:32:11.252Z,98034.94
2023-03-31T19:34:38.526Z,98050.25
2023-03-31T19:37:05.402Z,98043.50
2023-03-31T19:39:32.148Z,98046.50
2023-03-31T19:41:59.034Z,98053.69
2023-03-31T19:44:26.154Z,98054.97
2023-03-31T19:46:52.975Z,98055.09
2023-03-31T19:49:20.285Z,98053.84
2023-03-31T19:51:47.432Z,98056.47
2023-03-31T19:54:14.393Z,98055.84
2023-03-31T19:56:41.197Z,98051.41
2023-03-31T19:59:08.106Z,98048.50
2023-03-31T20:01:36.146Z,98044.66
2023-03-31T20:04:03.326Z,98034.16
2023-03-31T20:06:31.999Z,98032.59
2023-03-31T20:09:01.063Z,98041.72
2023-03-31T20:13:57.063Z,98033.34
2023-03-31T20:16:27.716Z,98031.63
2023-03-31T20:18:58.748Z,98034.47
2023-03-31T20:21:28.409Z,98030.41
2023-03-31T20:23:55.773Z,98038.13
2023-03-31T20:28:58.460Z,98036.25
2023-03-31T20:33:57.524Z,98033.81
2023-03-31T20:36:27.421Z,98018.03
2023-03-31T20:38:54.332Z,98029.59
2023-03-31T20:41:26.976Z,98038.72
2023-03-31T20:43:55.123Z,98045.47
2023-03-31T20:46:22.804Z,98038.22
2023-03-31T20:48:53.331Z,98037.06
2023-03-31T20:51:23.524Z,98048.44
2023-03-31T20:53:55.485Z,98038.91
2023-03-31T20:56:29.162Z,98055.34
2023-03-31T20:58:59.840Z,98044.75
2023-03-31T21:04:01.068Z,98046.16
2023-03-31T21:08:57.864Z,98050.47
2023-03-31T21:11:25.484Z,98050.69
2023-03-31T21:13:53.440Z,98052.34
2023-03-31T21:16:21.557Z,98058.84
2023-03-31T21:18:48.926Z,98059.16
2023-03-31T21:21:19.149Z,98074.00
2023-03-31T21:23:46.916Z,98072.38
2023-03-31T21:26:15.984Z,98077.63
2023-03-31T21:28:44.126Z,98063.63
2023-03-31T21:31:19.885Z,98054.66
2023-03-31T21:33:47.739Z,98062.56
2023-03-31T21:36:18.315Z,98057.00
2023-03-31T21:38:46.026Z,98061.06
2023-03-31T21:41:16.182Z,98057.34
2023-03-31T21:43:44.248Z,98065.97
2023-03-31T21:46:16.894Z,98068.22
2023-03-31T21:48:44.363Z,98076.25
2023-03-31T21:51:12.255Z,98065.28
2023-03-31T21:53:39.220Z,98072.09
2023-03-31T21:56:08.021Z,98064.72
2023-03-31T21:58:35.119Z,98064.81
2023-03-31T22:01:04.525Z,98070.19
2023-03-31T22:03:34.633Z,98072.28
2023-03-31T22:06:04.339Z,98069.50
2023-03-31T22:08:30.961Z,98076.72
2023-03-31T22:11:06.227Z,98071.53
2023-03-31T22:13:33.378Z,98059.41
2023-03-31T22:16:02.399Z,98066.31
2023-03-31T22:20:57.341Z,98059.66
2023-03-31T22:23:24.556Z,98058.38
2023-03-31T22:25:51.545Z,98051.50
2023-03-31T22:28:18.748Z,98067.94
2023-03-31T22:30:45.816Z,98056.84
2023-03-31T22:33:13.333Z,98067.13
2023-03-31T22:35:40.281Z,98064.22
2023-03-31T22:38:08.681Z,98076.50
2023-03-31T22:40:36.535Z,98066.44
2023-03-31T22:43:04.235Z,98072.09
2023-03-31T22:47:56.948Z,98059.78
2023-03-31T22:50:24.736Z,98072.88
2023-03-31T22:52:52.287Z,98076.44
2023-03-31T22:55:19.470Z,98068.41
2023-03-31T22:57:49.601Z,98065.88
2023-03-31T23:00:17.318Z,98066.16
2023-03-31T23:02:44.276Z,98079.75
2023-03-31T23:05:11.114Z,98065.97
2023-03-31T23:07:38.819Z,98081.50
2023-03-31T23:10:06.374Z,98064.22
2023-03-31T23:12:33.245Z,98073.78
2023-03-31T23:15:00.227Z,98063.00
2023-03-31T23:17:27.406Z,98068.06
2023-03-31T23:19:54.478Z,98070.19
2023-03-31T23:22:21.906Z,98073.19
2023-03-31T23:24:49.939Z,98069.66
2023-03-31T23:27:16.689Z,98061.41
2023-03-31T23:29:44.565Z,98070.28
2023-03-31T23:32:11.376Z,98071.09
2023-03-31T23:34:43.076Z,98071.28
2023-03-31T23:37:12.188Z,98070.38
2023-03-31T23:39:40.289Z,98063.31
2023-03-31T23:42:08.246Z,98061.22
2023-03-31T23:44:39.246Z,98063.81
2023-03-31T23:47:06.743Z,98055.97
2023-03-31T23:49:33.932Z,98047.81
2023-03-31T23:52:01.553Z,98051.47
2023-03-31T23:54:29.170Z,98057.56
2023-03-31T23:56:56.438Z,98063.63
2023-03-31T23:59:23.372Z,98062.00
